Valle Toledo, Valles Caldera, New Mexico Weather observations

Data are for 10 minute period ending at time listed.
 Day   Time   Solar   Ave.   Ave.  Ave.  Vector  Max.   Baro.   Total    
  of    of     Rad.   Air    Rel.  Wind   Wind   Wind  Press.  Precip.   
Year   Day            Temp.  Hum.  Speed  Dir.   Gust                    
2014   (MST)  Kw/m2    F      %     mph   deg.    mph    mb.     in.     
-------------------------------------------------------------------------
 273    0:00   0.00   34.2    76    3.1    20     4.2   730.5    0.00 
 273    0:10   0.00   34.0    76    3.5    27     4.8   730.5    0.00 
 273    0:20   0.00   33.8    77    3.5    23     4.2   730.4    0.00 
 273    0:30   0.00   34.1    75    4.2    28     6.0   730.4    0.00 
 273    0:40   0.00   34.1    74    3.4    27     4.8   730.4    0.00 
 273    0:50   0.00   34.0    74    3.4    32     4.2   730.3    0.00 
 273    1:00   0.00   34.2    74    3.1    25     4.8   730.3    0.00 
 273    1:10   0.00   34.6    72    3.3    32     4.2   730.4    0.00 
 273    1:20   0.00   34.8    72    2.9    18     4.2   730.4    0.00 
 273    1:30   0.00   34.4    73    3.8    32     4.8   730.4    0.00 
 273    1:40   0.00   34.1    74    4.1    34     5.4   730.3    0.00 
 273    1:50   0.00   33.8    74    3.2    31     5.4   730.2    0.00 
 273    2:00   0.00   33.7    74    3.0    25     4.8   730.1    0.00 
 273    2:10   0.00   34.2    72    2.4    61     4.2   730.1    0.00 
 273    2:20   0.00   34.1    72    2.5     8     4.2   730.0    0.00 
 273    2:30   0.00   33.9    72    3.1    10     4.8   729.9    0.00 
 273    2:40   0.00   33.8    71    3.3    17     4.8   729.9    0.00 
 273    2:50   0.00   33.7    70    2.7   339     4.8   729.8    0.00 
 273    3:00   0.00   34.3    67    3.3   320     6.0   729.8    0.00 
 273    3:10   0.00   34.8    66    3.2   328     4.2   729.8    0.00 
 273    3:20   0.00   34.3    68    3.1   322     4.8   729.8    0.00 
 273    3:30   0.00   34.1    67    3.1   324     4.8   729.7    0.00 
 273    3:40   0.00   33.7    67    2.8   315     4.2   729.7    0.00 
 273    3:50   0.00   34.0    65    3.3   328     5.4   729.6    0.00 
 273    4:00   0.00   34.2    64    3.6   327     6.0   729.6    0.00 
 273    4:10   0.00   34.3    63    3.5   329     4.8   729.5    0.00 
 273    4:20   0.00   34.4    62    3.7   318     6.6   729.5    0.00 
 273    4:30   0.00   35.6    59    4.1   298     7.8   729.5    0.00 
 273    4:40   0.00   35.6    60    4.2   309     8.4   729.5    0.00 
 273    4:50   0.00   36.0    59    3.7   300     7.8   729.5    0.00 
 273    5:00   0.00   35.6    60    3.7   303     5.4   729.5    0.00 
 273    5:10   0.00   35.3    62    4.9   292    10.2   729.5    0.00 
 273    5:20   0.00   35.1    63    2.8   289     4.2   729.5    0.00 
 273    5:30   0.00   34.5    64    2.4   302     4.2   729.6    0.00 
 273    5:40   0.00   34.3    64    2.5   300     4.2   729.5    0.00 
 273    5:50   0.00   33.8    65    2.2   335     3.6   729.5    0.00 
 273    6:00   0.00   33.2    67    2.3   333     4.2   729.5    0.00 
 273    6:10   0.01   32.8    68    2.9    14     4.2   729.5    0.00 
 273    6:20   0.01   32.5    70    3.1    16     4.2   729.5    0.00 
 273    6:30   0.01   32.5    70    3.4    13     4.8   729.5    0.00 
 273    6:40   0.01   32.8    71    3.1   338     4.2   729.6    0.00 
 273    6:50   0.01   33.7    69    3.6   332     5.4   729.6    0.00 
 273    7:00   0.02   34.0    68    3.9   326     5.4   729.6    0.00 
 273    7:10   0.04   35.2    67    3.5   310     4.8   729.6    0.00 
 273    7:20   0.06   38.5    62    3.7   303     6.0   729.6    0.00 
 273    7:30   0.09   40.0    58    4.8   291     9.0   729.6    0.00 
 273    7:40   0.12   41.0    56    7.1   301    11.9   729.6    0.00 
 273    7:50   0.19   42.4    54    6.7   300    10.2   729.6    0.00 
 273    8:00   0.10   42.5    55    4.9   282     9.0   729.6    0.00 
 273    8:10   0.37   42.4    56    4.3   259     7.8   729.5    0.00 
 273    8:20   0.42   44.5    54    3.9   251     6.0   729.5    0.00 
 273    8:30   0.46   45.7    50    4.1   249     6.0   729.5    0.00 
 273    8:40   0.49   46.5    49    3.9   257     7.2   729.5    0.00 
 273    8:50   0.52   47.6    46    5.2   228     9.6   729.5    0.00 
 273    9:00   0.55   47.7    45    5.2   233     9.0   729.6    0.00 
 273    9:10   0.57   48.8    44    4.2   248     7.8   729.6    0.00 
 273    9:20   0.60   50.1    43    5.2   235     9.0   729.7    0.00 
 273    9:30   0.63   50.3    41    5.5   243     9.6   729.8    0.00 
 273    9:40   0.65   50.8    39    6.0   229    11.3   729.7    0.00 
 273    9:50   0.67   51.2    39    6.0   248    10.2   729.6    0.00 
 273   10:00   0.69   51.9    40    6.4   250     9.6   729.6    0.00 
 273   10:10   0.71   52.7    37    7.4   285    13.1   729.6    0.00 
 273   10:20   0.73   53.3    37    7.8   300    11.9   729.6    0.00 
 273   10:30   0.75   53.9    36    7.6   280    13.1   729.6    0.00 
 273   10:40   0.76   53.1    38    6.2   244    11.3   729.5    0.00 
 273   10:50   0.78   53.4    39    5.0   220    10.2   729.3    0.00 
 273   11:00   0.79   54.5    37    5.4   224     9.0   729.3    0.00 
 273   11:10   0.80   54.9    35    4.3   284     9.6   729.3    0.00 
 273   11:20   0.81   54.5    36    6.3   246    11.9   729.2    0.00 
 273   11:30   0.82   54.1    37    7.2   234    11.9   729.2    0.00 
 273   11:40   0.82   55.0    36    6.4   207    11.9   729.1    0.00 
 273   11:50   0.82   55.4    36    7.1   260    13.1   729.0    0.00 
 273   12:00   0.82   55.5    36    6.9   244    13.7   729.0    0.00 
 273   12:10   0.82   55.8    36    7.5   260    13.7   729.0    0.00 
 273   12:20   0.83   56.4    36    6.7   262    13.7   729.0    0.00 
 273   12:30   0.84   56.3    35    7.8   247    13.7   729.0    0.00 
 273   12:40   0.83   56.0    35    8.8   249    14.9   728.9    0.00 
 273   12:50   0.85   56.4    36    8.7   273    17.3   728.9    0.00 
 273   13:00   0.84   57.6    35    7.4   289    15.5   728.8    0.00 
 273   13:10   0.82   57.7    34    8.1   274    17.3   728.7    0.00 
 273   13:20   0.81   56.8    33    9.5   256    17.3   728.6    0.00 
 273   13:30   0.78   57.1    34    8.2   243    17.3   728.5    0.00 
 273   13:40   0.76   56.4    34    8.2   254    14.3   728.5    0.00 
 273   13:50   0.74   56.4    35    8.6   254    14.9   728.5    0.00 
 273   14:00   0.73   55.7    36    9.1   255    16.7   728.5    0.00 
 273   14:10   0.69   55.4    35    8.3   253    15.5   728.5    0.00 
 273   14:20   0.67   56.3    34    8.2   258    16.1   728.4    0.00 
 273   14:30   0.64   55.9    33    7.4   254    14.9   728.4    0.00 
 273   14:40   0.62   56.5    33    7.7   250    19.1   728.4    0.00 
 273   14:50   0.59   56.1    34    6.8   244    13.1   728.4    0.00 
 273   15:00   0.56   56.9    33    7.5   268    13.7   728.4    0.00 
 273   15:10   0.54   56.3    33    9.2   255    17.3   728.3    0.00 
 273   15:20   0.50   55.6    33    8.7   250    16.1   728.4    0.00 
 273   15:30   0.47   55.5    34    7.6   258    14.9   728.4    0.00 
 273   15:40   0.44   56.2    33    6.9   268    14.3   728.4    0.00 
 273   15:50   0.40   55.7    33    8.0   263    14.3   728.4    0.00 
 273   16:00   0.37   54.9    34    8.1   255    12.5   728.4    0.00 
 273   16:10   0.34   54.5    35    7.6   260    13.1   728.5    0.00 
 273   16:20   0.30   54.5    35    7.0   254    13.7   728.4    0.00 
 273   16:30   0.27   54.5    36    6.6   251    11.3   728.4    0.00 
 273   16:40   0.24   54.2    36    7.1   258    12.5   728.6    0.00 
 273   16:50   0.22   53.5    37    7.2   262    14.9   728.6    0.00 
 273   17:00   0.18   53.5    37    6.4   273    12.5   728.7    0.00 
 273   17:10   0.14   53.6    37    6.0   278    12.5   728.8    0.00 
 273   17:20   0.10   52.5    39    6.1   276    14.9   728.8    0.00 
 273   17:30   0.06   51.7    40    6.2   281    11.9   728.8    0.00 
 273   17:40   0.03   50.7    42    5.2   288    11.3   728.9    0.00 
 273   17:50   0.01   49.3    44    5.3   294     8.4   729.0    0.00 
 273   18:00   0.00   47.5    47    2.7   280     4.8   729.0    0.00 
 273   18:10   0.00   46.2    50    2.8   350     4.8   729.0    0.00 
 273   18:20   0.00   44.9    54    3.6   356     6.0   729.1    0.00 
 273   18:30   0.00   44.4    55    4.0   344     6.0   729.0    0.00 
 273   18:40   0.00   43.9    56    4.3   348     8.4   729.1    0.00 
 273   18:50   0.00   43.6    57    4.7   355    10.2   729.1    0.00 
 273   19:00   0.00   43.8    56    5.5   352    10.2   729.2    0.00 
 273   19:10   0.00   43.9    56    4.6   353     8.4   729.2    0.00 
 273   19:20   0.00   43.2    58    3.7   339     6.6   729.2    0.00 
 273   19:30   0.00   42.7    59    4.1    22     9.6   729.2    0.00 
 273   19:40   0.00   42.3    60    4.2    23     6.6   729.3    0.00 
 273   19:50   0.00   42.0    61    4.0    11     6.0   729.3    0.00 
 273   20:00   0.00   41.8    61    3.8   355     7.2   729.3    0.00 
 273   20:10   0.00   41.3    62    1.9    47     3.6   729.4    0.00 
 273   20:20   0.00   40.7    63    1.8   360     3.6   729.3    0.00 
 273   20:30   0.00   40.9    62    2.3    23     6.0   729.3    0.00 
 273   20:40   0.00   41.0    62    2.1    70     3.6   729.3    0.00 
 273   20:50   0.00   40.9    62    1.4    68     3.6   729.3    0.00 
 273   21:00   0.00   40.3    62    2.9    45     4.8   729.3    0.00 
 273   21:10   0.00   39.4    64    3.7    37     4.8   729.4    0.00 
 273   21:20   0.00   39.0    65    3.1    45     4.8   729.4    0.00 
 273   21:30   0.00   38.7    66    2.9    29     4.2   729.4    0.00 
 273   21:40   0.00   38.6    66    3.9    42     5.4   729.4    0.00 
 273   21:50   0.00   38.3    66    3.4    37     4.2   729.3    0.00 
 273   22:00   0.00   38.2    66    3.2    34     5.4   729.3    0.00 
 273   22:10   0.00   38.6    66    2.9    48     4.8   729.2    0.00 
 273   22:20   0.00   39.1    64    2.3    40     4.2   729.1    0.00 
 273   22:30   0.00   39.4    63    2.6   329     4.2   729.1    0.00 
 273   22:40   0.00   38.5    66    3.6   325     6.0   729.1    0.00 
 273   22:50   0.00   38.1    67    3.5   348     5.4   729.0    0.00 
 273   23:00   0.00   38.1    66    3.4    22     8.4   728.8    0.00 
 273   23:10   0.00   40.0    62    5.1   344    10.2   728.8    0.00 
 273   23:20   0.00   42.2    58    5.0   351     9.0   728.7    0.00 

Return to Valle Toledo, Valles Caldera graphs page.


Western Regional Climate Center,wrcc@dri.edu